createdAt,value
2018-09-14T00:01:32.644Z,21.10
2018-09-14T00:04:00.736Z,21.10
2018-09-14T00:06:28.927Z,21.10
2018-09-14T00:08:57.021Z,21.10
2018-09-14T00:11:25.157Z,21.00
2018-09-14T00:13:53.344Z,21.00
2018-09-14T00:16:21.467Z,21.00
2018-09-14T00:18:49.576Z,21.00
2018-09-14T00:21:17.679Z,21.00
2018-09-14T00:23:45.809Z,21.00
2018-09-14T00:26:13.907Z,20.90
2018-09-14T00:28:42.048Z,20.90
2018-09-14T00:31:10.151Z,20.80
2018-09-14T00:33:38.300Z,20.90
2018-09-14T00:36:06.451Z,20.90
2018-09-14T00:38:36.594Z,20.80
2018-09-14T00:41:04.963Z,20.80
2018-09-14T00:43:33.122Z,20.80
2018-09-14T00:46:01.243Z,20.80
2018-09-14T00:48:29.395Z,20.80
2018-09-14T00:50:57.544Z,20.80
2018-09-14T00:53:25.671Z,20.80
2018-09-14T00:55:53.824Z,20.70
2018-09-14T00:58:22.032Z,20.70
2018-09-14T01:00:50.163Z,20.60
2018-09-14T01:03:18.320Z,20.60
2018-09-14T01:05:46.459Z,20.60
2018-09-14T01:08:14.592Z,20.60
2018-09-14T01:10:42.967Z,20.60
2018-09-14T01:13:11.134Z,20.50
2018-09-14T01:15:39.294Z,20.50
2018-09-14T01:18:07.413Z,20.50
2018-09-14T01:20:35.563Z,20.40
2018-09-14T01:23:03.689Z,20.40
2018-09-14T01:25:31.809Z,20.40
2018-09-14T01:27:59.955Z,20.30
2018-09-14T01:30:28.144Z,20.30
2018-09-14T01:32:56.305Z,20.30
2018-09-14T01:35:29.805Z,20.20
2018-09-14T01:37:57.946Z,20.20
2018-09-14T01:40:26.106Z,20.20
2018-09-14T01:42:54.248Z,20.20
2018-09-14T01:45:22.399Z,20.10
2018-09-14T01:47:50.577Z,20.20
2018-09-14T01:50:18.747Z,20.10
2018-09-14T01:52:46.972Z,20.00
2018-09-14T01:55:15.107Z,20.00
2018-09-14T01:57:43.229Z,20.00
2018-09-14T02:00:11.356Z,19.90
2018-09-14T02:02:39.490Z,19.90
2018-09-14T02:05:07.612Z,19.80
2018-09-14T02:07:35.721Z,19.80
2018-09-14T02:10:03.910Z,19.80
2018-09-14T02:12:32.038Z,19.80
2018-09-14T02:15:00.164Z,19.80
2018-09-14T02:17:28.313Z,19.80
2018-09-14T02:19:56.480Z,19.80
2018-09-14T02:22:24.628Z,19.70
2018-09-14T02:24:52.756Z,19.70
2018-09-14T02:27:20.876Z,19.60
2018-09-14T02:29:49.055Z,19.60
2018-09-14T02:32:17.181Z,19.60
2018-09-14T02:34:45.325Z,19.50
2018-09-14T02:37:13.464Z,19.50
2018-09-14T02:39:41.594Z,19.50
2018-09-14T02:42:09.728Z,19.50
2018-09-14T02:44:37.831Z,19.40
2018-09-14T02:47:06.168Z,19.40
2018-09-14T02:49:34.296Z,19.50
2018-09-14T02:52:02.408Z,19.40
2018-09-14T02:54:30.531Z,19.30
2018-09-14T02:56:58.672Z,19.30
2018-09-14T02:59:26.784Z,19.30
2018-09-14T03:01:54.909Z,19.30
2018-09-14T03:04:23.036Z,19.30
2018-09-14T03:06:51.191Z,19.20
2018-09-14T03:09:19.310Z,19.20
2018-09-14T03:11:47.479Z,19.10
2018-09-14T03:14:15.614Z,19.10
2018-09-14T03:16:43.749Z,19.10
2018-09-14T03:19:11.911Z,19.10
2018-09-14T03:21:40.084Z,19.10
2018-09-14T03:24:08.212Z,19.00
2018-09-14T03:26:36.343Z,19.00
2018-09-14T03:29:04.520Z,19.10
2018-09-14T03:31:32.626Z,19.00
2018-09-14T03:34:00.761Z,19.00
2018-09-14T03:36:28.874Z,19.00
2018-09-14T03:38:56.983Z,18.90
2018-09-14T03:41:25.117Z,18.80
2018-09-14T03:43:53.276Z,18.80
2018-09-14T03:46:21.436Z,18.80
2018-09-14T03:48:49.604Z,18.80
2018-09-14T03:51:17.832Z,18.80
2018-09-14T03:53:45.956Z,18.80
2018-09-14T03:56:14.122Z,18.80
2018-09-14T03:58:42.266Z,18.70
2018-09-14T04:01:10.383Z,18.80
2018-09-14T04:03:38.891Z,18.70
2018-09-14T04:06:07.060Z,18.60
2018-09-14T04:08:35.212Z,18.60
2018-09-14T04:11:03.333Z,18.60
2018-09-14T04:13:31.493Z,18.60
2018-09-14T04:15:59.695Z,18.60
2018-09-14T04:18:27.808Z,18.60
2018-09-14T04:20:55.944Z,18.50
2018-09-14T04:23:24.080Z,18.50
2018-09-14T04:25:52.188Z,18.40
2018-09-14T04:28:20.341Z,18.50
2018-09-14T04:30:48.462Z,18.40
2018-09-14T04:33:16.569Z,18.40
2018-09-14T04:35:44.701Z,18.30
2018-09-14T04:38:12.888Z,18.30
2018-09-14T04:40:41.011Z,18.40
2018-09-14T04:43:09.116Z,18.30
2018-09-14T04:45:37.232Z,18.30
2018-09-14T04:48:05.353Z,18.30
2018-09-14T04:50:33.749Z,18.20
2018-09-14T04:53:01.923Z,18.30
2018-09-14T04:55:30.128Z,18.20
2018-09-14T04:57:58.277Z,18.30
2018-09-14T05:00:26.424Z,18.20
2018-09-14T05:02:54.573Z,18.20
2018-09-14T05:05:22.715Z,18.20
2018-09-14T05:07:50.878Z,18.10
2018-09-14T05:10:19.026Z,18.20
2018-09-14T05:12:47.147Z,18.10
2018-09-14T05:15:15.298Z,18.10
2018-09-14T05:17:43.445Z,18.10
2018-09-14T05:20:11.576Z,18.20
2018-09-14T05:22:39.744Z,18.10
2018-09-14T05:25:07.936Z,18.10
2018-09-14T05:27:36.030Z,18.10
2018-09-14T05:30:04.175Z,18.10
2018-09-14T05:32:32.285Z,18.00
2018-09-14T05:35:00.421Z,18.10
2018-09-14T05:37:28.556Z,18.00
2018-09-14T05:39:56.685Z,18.10
2018-09-14T05:42:24.827Z,18.10
2018-09-14T05:44:52.954Z,18.10
2018-09-14T05:47:21.066Z,18.00
2018-09-14T05:49:49.156Z,18.00
2018-09-14T05:52:17.310Z,18.00
2018-09-14T05:54:45.439Z,18.10
2018-09-14T05:57:13.566Z,18.00
2018-09-14T05:59:41.760Z,18.00
2018-09-14T06:02:09.899Z,18.00
2018-09-14T06:04:38.160Z,18.00
2018-09-14T06:07:06.268Z,18.00
2018-09-14T06:09:34.410Z,18.10
2018-09-14T06:12:02.540Z,18.10
2018-09-14T06:14:30.701Z,18.00
2018-09-14T06:16:58.875Z,18.00
2018-09-14T06:19:26.968Z,18.00
2018-09-14T06:21:55.067Z,18.10
2018-09-14T06:24:23.194Z,18.10
2018-09-14T06:26:51.347Z,18.20
2018-09-14T06:29:19.503Z,18.10
2018-09-14T06:31:47.595Z,18.10
2018-09-14T06:34:15.703Z,18.10
2018-09-14T06:36:43.845Z,18.10
2018-09-14T06:39:12.715Z,18.20
2018-09-14T06:41:40.897Z,18.20
2018-09-14T06:44:09.442Z,18.20
2018-09-14T06:46:37.587Z,18.20
2018-09-14T06:49:06.342Z,18.20
2018-09-14T06:51:35.644Z,18.30
2018-09-14T06:54:03.832Z,18.30
2018-09-14T06:56:31.888Z,18.40
2018-09-14T06:59:00.031Z,18.30
2018-09-14T07:01:28.171Z,18.40
2018-09-14T07:03:56.345Z,18.40
2018-09-14T07:06:24.538Z,18.50
2018-09-14T07:08:52.575Z,18.40
2018-09-14T07:11:20.741Z,18.50
2018-09-14T07:13:49.249Z,18.50
2018-09-14T07:16:17.384Z,18.50
2018-09-14T07:18:45.586Z,18.50
2018-09-14T07:21:13.692Z,18.50
2018-09-14T07:23:41.787Z,18.60
2018-09-14T07:26:09.975Z,18.60
2018-09-14T07:28:38.116Z,18.60
2018-09-14T07:31:06.465Z,18.60
2018-09-14T07:33:34.609Z,18.70
2018-09-14T07:36:02.703Z,18.70
2018-09-14T07:38:30.844Z,18.70
2018-09-14T07:40:58.965Z,18.80
2018-09-14T07:43:27.108Z,18.80
2018-09-14T07:45:55.234Z,18.70
2018-09-14T07:48:23.448Z,18.80
2018-09-14T07:50:51.476Z,18.70
2018-09-14T07:53:19.603Z,18.80
2018-09-14T07:55:47.728Z,18.60
2018-09-14T07:58:15.844Z,18.60
2018-09-14T08:00:44.041Z,18.70
2018-09-14T08:03:12.168Z,18.60
2018-09-14T08:05:40.319Z,18.70
2018-09-14T08:08:08.496Z,18.80
2018-09-14T08:10:36.639Z,18.90
2018-09-14T08:13:04.775Z,19.20
2018-09-14T08:15:32.881Z,19.30
2018-09-14T08:18:01.008Z,19.60
2018-09-14T08:20:29.117Z,19.70
2018-09-14T08:22:57.269Z,20.00
2018-09-14T08:25:25.377Z,20.20
2018-09-14T08:27:53.614Z,20.40
2018-09-14T08:30:21.815Z,20.80
2018-09-14T08:32:49.961Z,21.00
2018-09-14T08:35:18.080Z,21.30
2018-09-14T08:37:46.233Z,21.60
2018-09-14T08:40:14.353Z,21.80
2018-09-14T08:42:42.781Z,22.00
2018-09-14T08:45:11.122Z,22.20
2018-09-14T08:47:39.231Z,22.40
2018-09-14T08:50:07.353Z,22.60
2018-09-14T08:52:35.476Z,22.80
2018-09-14T08:55:03.617Z,22.90
2018-09-14T08:57:31.727Z,23.20
2018-09-14T08:59:59.872Z,23.40
2018-09-14T09:02:27.997Z,23.60
2018-09-14T09:04:56.116Z,23.90
2018-09-14T09:07:24.257Z,24.10
2018-09-14T09:09:52.380Z,24.30
2018-09-14T09:12:20.529Z,24.50
2018-09-14T09:14:48.718Z,24.70
2018-09-14T09:17:16.820Z,24.90
2018-09-14T09:19:44.956Z,25.20
2018-09-14T09:22:13.061Z,25.40
2018-09-14T09:24:41.639Z,25.70
2018-09-14T09:27:09.743Z,26.00
2018-09-14T09:29:37.877Z,26.30
2018-09-14T09:32:06.087Z,26.50
2018-09-14T09:34:34.243Z,26.70
2018-09-14T09:37:02.372Z,26.90
2018-09-14T09:39:30.551Z,27.20
2018-09-14T09:41:58.688Z,27.40
2018-09-14T09:44:26.832Z,27.70
2018-09-14T09:46:54.925Z,27.90
2018-09-14T09:49:23.096Z,28.10
2018-09-14T09:51:51.211Z,28.20
2018-09-14T09:54:19.331Z,28.40
2018-09-14T09:56:47.633Z,28.70
2018-09-14T09:59:15.720Z,28.90
2018-09-14T10:01:49.289Z,29.20
2018-09-14T10:04:23.081Z,29.40
2018-09-14T10:06:51.227Z,29.70
2018-09-14T10:09:19.391Z,29.90
2018-09-14T10:11:47.512Z,30.10
2018-09-14T10:14:15.655Z,30.30
2018-09-14T10:16:43.779Z,30.60
2018-09-14T10:19:11.888Z,30.70
2018-09-14T10:21:40.049Z,30.90
2018-09-14T10:24:08.128Z,31.10
2018-09-14T10:26:36.256Z,31.30
2018-09-14T10:29:04.431Z,31.40
2018-09-14T10:31:32.512Z,31.60
2018-09-14T10:34:00.674Z,31.80
2018-09-14T10:36:28.810Z,32.00
2018-09-14T10:38:56.972Z,32.20
2018-09-14T10:41:25.099Z,32.30
2018-09-14T10:43:53.258Z,32.50
2018-09-14T10:46:21.343Z,32.70
2018-09-14T10:48:49.552Z,32.90
2018-09-14T10:51:17.618Z,32.80
2018-09-14T10:53:45.737Z,32.80
2018-09-14T10:56:13.916Z,32.90
2018-09-14T10:58:42.016Z,33.20
2018-09-14T11:01:10.943Z,33.40
2018-09-14T11:03:39.154Z,33.70
2018-09-14T11:06:07.309Z,33.80
2018-09-14T11:08:35.683Z,34.10
2018-09-14T11:11:03.852Z,34.30
2018-09-14T11:13:32.071Z,34.40
2018-09-14T11:16:00.336Z,34.70
2018-09-14T11:18:28.626Z,34.90
2018-09-14T11:20:56.741Z,36.60
2018-09-14T11:23:24.880Z,38.30
2018-09-14T11:25:53.061Z,39.60
2018-09-14T11:28:21.368Z,40.70
2018-09-14T11:30:49.604Z,41.80
2018-09-14T11:33:17.826Z,42.70
2018-09-14T11:35:45.963Z,43.60
2018-09-14T11:38:14.127Z,44.70
2018-09-14T11:40:42.244Z,45.30
2018-09-14T11:43:10.380Z,46.20
2018-09-14T11:45:38.554Z,47.10
2018-09-14T11:48:06.723Z,46.70
2018-09-14T11:50:34.861Z,46.30
2018-09-14T11:53:02.975Z,43.00
2018-09-14T11:55:31.132Z,41.00
2018-09-14T11:57:59.304Z,42.30
2018-09-14T12:00:27.451Z,44.80
2018-09-14T12:02:55.593Z,46.80
2018-09-14T12:05:23.724Z,48.20
2018-09-14T12:07:51.900Z,49.20
2018-09-14T12:10:20.040Z,49.90
2018-09-14T12:12:48.168Z,50.70
2018-09-14T12:15:16.292Z,50.20
2018-09-14T12:17:44.472Z,49.90
2018-09-14T12:20:12.679Z,48.80
2018-09-14T12:22:40.843Z,46.70
2018-09-14T12:25:08.971Z,44.10
2018-09-14T12:27:37.104Z,43.40
2018-09-14T12:30:05.326Z,45.90
2018-09-14T12:32:33.460Z,46.80
2018-09-14T12:35:01.574Z,43.90
2018-09-14T12:37:29.690Z,41.40
2018-09-14T12:39:57.829Z,42.50
2018-09-14T12:42:26.033Z,44.60
2018-09-14T12:44:54.183Z,43.10
2018-09-14T12:47:22.344Z,41.30
2018-09-14T12:49:50.468Z,39.80
2018-09-14T12:52:18.575Z,40.70
2018-09-14T12:54:46.695Z,42.50
2018-09-14T12:57:14.826Z,40.90
2018-09-14T12:59:42.950Z,39.50
2018-09-14T13:02:11.084Z,38.30
2018-09-14T13:04:40.282Z,37.80
2018-09-14T13:07:08.468Z,38.90
2018-09-14T13:09:37.053Z,41.30
2018-09-14T13:12:05.216Z,43.00
2018-09-14T13:14:33.391Z,45.90
2018-09-14T13:17:01.705Z,47.50
2018-09-14T13:19:30.444Z,49.00
2018-09-14T13:22:00.900Z,50.20
2018-09-14T13:24:29.009Z,51.00
2018-09-14T13:26:57.214Z,49.60
2018-09-14T13:29:25.319Z,50.10
2018-09-14T13:31:53.485Z,50.50
2018-09-14T13:34:21.616Z,51.30
2018-09-14T13:36:49.776Z,50.50
2018-09-14T13:39:17.917Z,50.20
2018-09-14T13:41:46.029Z,48.30
2018-09-14T13:44:14.136Z,48.80
2018-09-14T13:46:42.265Z,49.90
2018-09-14T13:49:10.421Z,49.70
2018-09-14T13:51:38.548Z,48.40
2018-09-14T13:54:06.692Z,47.30
2018-09-14T13:56:34.854Z,45.50
2018-09-14T13:59:03.004Z,43.80
2018-09-14T14:01:31.240Z,42.10
2018-09-14T14:03:59.253Z,40.30
2018-09-14T14:06:27.361Z,39.00
2018-09-14T14:08:55.472Z,38.10
2018-09-14T14:11:23.657Z,38.70
2018-09-14T14:13:51.855Z,40.40
2018-09-14T14:16:20.011Z,39.10
2018-09-14T14:18:48.147Z,38.10
2018-09-14T14:21:16.281Z,38.20
2018-09-14T14:23:44.420Z,38.40
2018-09-14T14:26:12.516Z,39.60
2018-09-14T14:28:40.648Z,39.50
2018-09-14T14:31:08.781Z,38.80
2018-09-14T14:33:36.912Z,37.70
2018-09-14T14:36:05.201Z,37.00
2018-09-14T14:38:33.325Z,36.10
2018-09-14T14:41:01.444Z,36.60
2018-09-14T14:43:29.591Z,36.00
2018-09-14T14:45:57.741Z,35.60
2018-09-14T14:48:25.876Z,35.90
2018-09-14T14:50:54.017Z,36.10
2018-09-14T14:53:22.164Z,35.20
2018-09-14T14:55:50.319Z,34.30
2018-09-14T14:58:18.383Z,33.70
2018-09-14T15:00:46.529Z,33.20
2018-09-14T15:03:14.695Z,32.80
2018-09-14T15:05:42.820Z,32.50
2018-09-14T15:08:10.948Z,32.30
2018-09-14T15:10:39.204Z,32.10
2018-09-14T15:13:07.241Z,32.00
2018-09-14T15:15:35.380Z,31.80
2018-09-14T15:18:03.539Z,31.80
2018-09-14T15:20:31.835Z,31.90
2018-09-14T15:23:00.000Z,31.70
2018-09-14T15:25:28.148Z,31.60
2018-09-14T15:27:56.342Z,31.70
2018-09-14T15:30:24.464Z,31.60
2018-09-14T15:32:52.616Z,31.40
2018-09-14T15:35:20.756Z,31.30
2018-09-14T15:37:49.762Z,31.30
2018-09-14T15:40:17.884Z,31.30
2018-09-14T15:42:46.037Z,31.30
2018-09-14T15:45:14.168Z,31.20
2018-09-14T15:47:42.300Z,31.20
2018-09-14T15:50:10.452Z,31.20
2018-09-14T15:52:39.055Z,31.30
2018-09-14T15:55:07.228Z,31.10
2018-09-14T15:57:35.380Z,31.20
2018-09-14T16:00:03.480Z,31.10
2018-09-14T16:02:31.999Z,31.10
2018-09-14T16:05:00.100Z,31.00
2018-09-14T16:07:28.365Z,30.90
2018-09-14T16:09:57.149Z,30.90
2018-09-14T16:12:25.277Z,30.80
2018-09-14T16:14:53.877Z,30.70
2018-09-14T16:17:24.321Z,30.60
2018-09-14T16:19:52.546Z,30.40
2018-09-14T16:22:22.924Z,30.30
2018-09-14T16:24:56.704Z,30.20
2018-09-14T16:27:25.156Z,30.00
2018-09-14T16:29:53.985Z,29.90
2018-09-14T16:32:22.100Z,29.70
2018-09-14T16:34:50.244Z,29.70
2018-09-14T16:37:18.427Z,29.60
2018-09-14T16:39:46.473Z,29.50
2018-09-14T16:42:14.604Z,29.50
2018-09-14T16:44:42.732Z,29.40
2018-09-14T16:47:11.161Z,29.20
2018-09-14T16:49:39.640Z,29.20
2018-09-14T16:52:07.745Z,29.00
2018-09-14T16:54:35.988Z,28.90
2018-09-14T16:57:04.148Z,28.90
2018-09-14T16:59:32.305Z,28.80
2018-09-14T17:02:00.424Z,28.70
2018-09-14T17:04:28.694Z,28.60
2018-09-14T17:06:56.862Z,28.50
2018-09-14T17:09:25.011Z,28.50
2018-09-14T17:11:53.275Z,28.40
2018-09-14T17:14:21.476Z,28.30
2018-09-14T17:16:49.630Z,28.30
2018-09-14T17:19:17.785Z,28.20
2018-09-14T17:21:45.905Z,28.20
2018-09-14T17:24:14.065Z,28.10
2018-09-14T17:26:42.205Z,28.10
2018-09-14T17:29:10.646Z,28.00
2018-09-14T17:31:38.792Z,27.90
2018-09-14T17:34:06.942Z,27.80
2018-09-14T17:36:35.040Z,27.70
2018-09-14T17:39:03.481Z,27.70
2018-09-14T17:41:34.784Z,27.60
2018-09-14T17:44:02.941Z,27.50
2018-09-14T17:46:31.187Z,27.50
2018-09-14T17:48:59.293Z,27.40
2018-09-14T17:51:27.384Z,27.30
2018-09-14T17:53:55.549Z,27.30
2018-09-14T17:56:23.689Z,27.20
2018-09-14T17:58:51.873Z,27.20
2018-09-14T18:01:20.035Z,27.10
2018-09-14T18:03:48.324Z,27.00
2018-09-14T18:06:16.449Z,27.00
2018-09-14T18:08:44.548Z,26.90
2018-09-14T18:11:12.975Z,26.90
2018-09-14T18:13:41.081Z,26.80
2018-09-14T18:16:09.387Z,26.70
2018-09-14T18:18:37.538Z,26.70
2018-09-14T18:21:05.740Z,26.60
2018-09-14T18:23:33.900Z,26.60
2018-09-14T18:26:02.200Z,26.50
2018-09-14T18:28:30.411Z,26.50
2018-09-14T18:30:58.555Z,26.50
2018-09-14T18:33:26.668Z,26.40
2018-09-14T18:35:55.648Z,26.40
2018-09-14T18:38:23.676Z,26.40
2018-09-14T18:40:51.787Z,26.30
2018-09-14T18:43:19.923Z,26.30
2018-09-14T18:45:48.028Z,26.30
2018-09-14T18:48:16.230Z,26.20
2018-09-14T18:50:44.339Z,26.30
2018-09-14T18:53:12.473Z,26.20
2018-09-14T18:55:40.614Z,26.10
2018-09-14T18:58:08.722Z,26.10
2018-09-14T19:00:36.847Z,26.00
2018-09-14T19:03:04.944Z,26.00
2018-09-14T19:05:33.131Z,26.00
2018-09-14T19:08:01.361Z,25.90
2018-09-14T19:10:29.547Z,25.90
2018-09-14T19:12:57.693Z,25.90
2018-09-14T19:15:25.816Z,25.90
2018-09-14T19:17:53.937Z,25.80
2018-09-14T19:20:22.065Z,25.80
2018-09-14T19:22:50.188Z,25.80
2018-09-14T19:25:18.296Z,25.80
2018-09-14T19:27:46.432Z,25.70
2018-09-14T19:30:14.556Z,25.70
2018-09-14T19:32:42.681Z,25.70
2018-09-14T19:35:10.849Z,25.70
2018-09-14T19:37:38.950Z,25.60
2018-09-14T19:40:07.065Z,25.60
2018-09-14T19:42:35.196Z,25.60
2018-09-14T19:45:03.311Z,25.50
2018-09-14T19:47:31.444Z,25.50
2018-09-14T19:49:59.625Z,25.40
2018-09-14T19:52:27.745Z,25.40
2018-09-14T19:54:55.860Z,25.40
2018-09-14T19:57:23.994Z,25.40
2018-09-14T19:59:52.147Z,25.40
2018-09-14T20:02:20.309Z,25.30
2018-09-14T20:04:48.503Z,25.20
2018-09-14T20:07:16.636Z,25.20
2018-09-14T20:09:44.730Z,25.30
2018-09-14T20:12:12.982Z,25.20
2018-09-14T20:14:41.183Z,25.30
2018-09-14T20:17:09.393Z,25.30
2018-09-14T20:19:37.508Z,25.20
2018-09-14T20:22:05.989Z,25.20
2018-09-14T20:24:34.116Z,25.10
2018-09-14T20:27:02.262Z,25.10
2018-09-14T20:29:30.456Z,25.10
2018-09-14T20:31:58.524Z,25.10
2018-09-14T20:34:26.676Z,25.00
2018-09-14T20:36:54.836Z,25.00
2018-09-14T20:39:22.976Z,25.00
2018-09-14T20:41:51.096Z,25.00
2018-09-14T20:44:19.274Z,24.90
2018-09-14T20:46:47.452Z,25.00
2018-09-14T20:49:15.585Z,24.90
2018-09-14T20:51:43.760Z,24.90
2018-09-14T20:54:11.815Z,24.90
2018-09-14T20:56:39.936Z,24.90
2018-09-14T20:59:08.215Z,24.80
2018-09-14T21:01:36.339Z,24.80
2018-09-14T21:04:04.450Z,24.80
2018-09-14T21:06:32.600Z,24.80
2018-09-14T21:09:00.892Z,24.70
2018-09-14T21:11:29.021Z,24.70
2018-09-14T21:13:57.149Z,24.60
2018-09-14T21:16:25.307Z,24.60
2018-09-14T21:18:53.465Z,24.60
2018-09-14T21:21:21.655Z,24.60
2018-09-14T21:23:49.862Z,24.50
2018-09-14T21:26:18.047Z,24.50
2018-09-14T21:28:46.387Z,24.50
2018-09-14T21:31:14.556Z,24.50
2018-09-14T21:33:43.515Z,24.40
2018-09-14T21:36:11.625Z,24.40
2018-09-14T21:38:39.824Z,24.30
2018-09-14T21:41:07.976Z,24.30
2018-09-14T21:43:36.137Z,24.30
2018-09-14T21:46:04.300Z,24.30
2018-09-14T21:48:32.420Z,24.20
2018-09-14T21:51:02.383Z,24.20
2018-09-14T21:53:31.049Z,24.20
2018-09-14T21:55:59.567Z,24.20
2018-09-14T21:58:27.709Z,24.10
2018-09-14T22:01:01.262Z,24.10
2018-09-14T22:03:29.604Z,24.00
2018-09-14T22:05:57.902Z,24.00
2018-09-14T22:08:26.166Z,24.00
2018-09-14T22:10:54.449Z,23.90
2018-09-14T22:13:22.660Z,23.90
2018-09-14T22:15:50.944Z,23.90
2018-09-14T22:18:19.099Z,23.90
2018-09-14T22:20:47.400Z,23.90
2018-09-14T22:23:15.716Z,23.80
2018-09-14T22:25:43.836Z,23.80
2018-09-14T22:28:12.508Z,23.80
2018-09-14T22:30:40.692Z,23.70
2018-09-14T22:33:08.828Z,23.70
2018-09-14T22:35:37.228Z,23.70
2018-09-14T22:38:05.360Z,23.60
2018-09-14T22:40:34.399Z,23.70
2018-09-14T22:43:02.616Z,23.60
2018-09-14T22:45:31.020Z,23.60
2018-09-14T22:47:59.260Z,23.60
2018-09-14T22:50:27.550Z,23.50
2018-09-14T22:52:55.791Z,23.50
2018-09-14T22:55:24.335Z,23.40
2018-09-14T22:57:52.673Z,23.40
2018-09-14T23:01:24.309Z,23.40
2018-09-14T23:03:52.516Z,23.30
2018-09-14T23:06:20.844Z,23.20
2018-09-14T23:08:49.053Z,23.20
2018-09-14T23:11:17.283Z,23.30
2018-09-14T23:13:45.677Z,23.10
2018-09-14T23:16:13.996Z,23.20
2018-09-14T23:18:42.140Z,23.10
2018-09-14T23:21:10.537Z,23.10
2018-09-14T23:23:38.677Z,23.10
2018-09-14T23:26:09.195Z,23.00
2018-09-14T23:28:37.588Z,23.10
2018-09-14T23:31:05.748Z,23.00
2018-09-14T23:33:33.873Z,23.00
2018-09-14T23:36:02.035Z,22.90
2018-09-14T23:38:30.175Z,22.90
2018-09-14T23:40:59.246Z,22.80
2018-09-14T23:43:27.476Z,22.80
2018-09-14T23:45:55.552Z,22.80
2018-09-14T23:48:23.688Z,22.70
2018-09-14T23:50:51.814Z,22.70
2018-09-14T23:53:19.949Z,22.60
2018-09-14T23:55:48.131Z,22.70
2018-09-14T23:58:16.227Z,22.70
